createdAt,value
2022-11-30T00:01:23.566Z,3.84
2022-11-30T00:03:54.052Z,3.47
2022-11-30T00:06:23.456Z,3.83
2022-11-30T00:08:59.321Z,3.66
2022-11-30T00:11:27.438Z,3.83
2022-11-30T00:13:56.207Z,3.63
2022-11-30T00:16:23.055Z,3.67
2022-11-30T00:18:49.685Z,3.60
2022-11-30T00:21:17.691Z,3.75
2022-11-30T00:23:46.381Z,3.89
2022-11-30T00:26:16.463Z,3.94
2022-11-30T00:28:44.126Z,3.70
2022-11-30T00:31:13.017Z,3.91
2022-11-30T00:33:40.311Z,3.93
2022-11-30T00:36:18.372Z,3.97
2022-11-30T00:38:45.700Z,3.69
2022-11-30T00:41:12.775Z,3.87
2022-11-30T00:43:44.079Z,3.90
2022-11-30T00:46:10.806Z,3.79
2022-11-30T00:48:38.760Z,3.87
2022-11-30T00:51:06.231Z,3.77
2022-11-30T00:53:34.138Z,3.87
2022-11-30T00:56:00.610Z,3.62
2022-11-30T00:58:27.048Z,3.73
2022-11-30T01:00:58.474Z,3.72
2022-11-30T01:03:24.931Z,3.82
2022-11-30T01:05:51.378Z,3.51
2022-11-30T01:08:25.549Z,3.62
2022-11-30T01:11:05.334Z,3.62
2022-11-30T01:13:32.792Z,3.54
2022-11-30T01:15:59.552Z,3.82
2022-11-30T01:18:26.029Z,3.82
2022-11-30T01:20:52.437Z,3.83
2022-11-30T01:23:18.968Z,3.66
2022-11-30T01:25:54.010Z,3.47
2022-11-30T01:28:20.430Z,3.79
2022-11-30T01:30:59.197Z,3.54
2022-11-30T01:33:25.816Z,3.69
2022-11-30T01:36:17.213Z,3.84
2022-11-30T01:38:59.884Z,3.69
2022-11-30T01:41:28.958Z,3.74
2022-11-30T01:44:19.558Z,3.70
2022-11-30T01:46:54.291Z,3.65
2022-11-30T01:49:26.638Z,3.70
2022-11-30T01:52:02.661Z,3.58
2022-11-30T01:54:46.082Z,3.63
2022-11-30T01:57:35.819Z,3.74
2022-11-30T02:00:13.082Z,3.74
2022-11-30T02:02:42.410Z,3.75
2022-11-30T02:05:10.639Z,3.67
2022-11-30T02:07:37.532Z,3.62
2022-11-30T02:10:04.494Z,3.75
2022-11-30T02:12:53.199Z,3.70
2022-11-30T02:15:31.548Z,3.62
2022-11-30T02:18:12.659Z,3.52
2022-11-30T02:20:49.916Z,3.64
2022-11-30T02:24:09.633Z,3.59
2022-11-30T02:26:54.862Z,3.54
2022-11-30T02:29:38.051Z,3.46
2022-11-30T02:32:12.221Z,3.47
2022-11-30T02:34:41.431Z,3.36
2022-11-30T02:37:18.074Z,3.49
2022-11-30T02:39:44.893Z,3.30
2022-11-30T02:42:14.886Z,3.47
2022-11-30T02:44:50.259Z,3.17
2022-11-30T02:47:42.826Z,3.29
2022-11-30T02:50:15.690Z,3.15
2022-11-30T02:52:42.327Z,3.27
2022-11-30T02:55:11.287Z,3.21
2022-11-30T02:57:37.765Z,3.14
2022-11-30T03:00:12.203Z,3.16
2022-11-30T03:02:39.755Z,3.06
2022-11-30T03:05:07.483Z,3.32
2022-11-30T03:07:40.292Z,2.95
2022-11-30T03:10:07.564Z,2.93
2022-11-30T03:12:34.029Z,3.23
2022-11-30T03:15:00.505Z,2.99
2022-11-30T03:17:26.979Z,2.96
2022-11-30T03:20:07.232Z,3.36
2022-11-30T03:22:34.046Z,3.04
2022-11-30T03:25:00.478Z,3.28
2022-11-30T03:27:27.919Z,2.89
2022-11-30T03:29:54.542Z,3.09
2022-11-30T03:32:20.959Z,3.15
2022-11-30T03:34:47.717Z,2.75
2022-11-30T03:37:14.504Z,2.81
2022-11-30T03:39:51.407Z,3.11
2022-11-30T03:42:21.469Z,2.89
2022-11-30T03:44:49.127Z,2.84
2022-11-30T03:47:15.730Z,2.81
2022-11-30T03:49:48.335Z,2.82
2022-11-30T03:52:14.766Z,2.39
2022-11-30T03:54:52.616Z,2.81
2022-11-30T03:57:19.060Z,2.83
2022-11-30T03:59:45.490Z,2.76
2022-11-30T04:02:13.964Z,2.75
2022-11-30T04:04:40.404Z,2.75
2022-11-30T04:07:06.844Z,2.67
2022-11-30T04:09:33.263Z,2.51
2022-11-30T04:11:59.794Z,2.69
2022-11-30T04:14:36.511Z,2.77
2022-11-30T04:17:03.206Z,2.64
2022-11-30T04:19:46.013Z,2.69
2022-11-30T04:22:12.415Z,2.60
2022-11-30T04:24:42.058Z,2.81
2022-11-30T04:27:08.486Z,2.68
2022-11-30T04:29:34.890Z,2.27
2022-11-30T04:32:01.329Z,2.70
2022-11-30T04:34:28.592Z,2.56
2022-11-30T04:37:00.125Z,2.28
2022-11-30T04:39:26.933Z,2.44
2022-11-30T04:41:53.387Z,2.55
2022-11-30T04:44:26.066Z,2.68
2022-11-30T04:46:52.825Z,2.72
2022-11-30T04:49:26.311Z,2.85
2022-11-30T04:51:52.732Z,2.69
2022-11-30T04:54:19.182Z,2.75
2022-11-30T04:56:45.621Z,2.80
2022-11-30T04:59:12.026Z,2.81
2022-11-30T05:01:40.615Z,2.64
2022-11-30T05:04:07.078Z,2.68
2022-11-30T05:06:34.592Z,2.64
2022-11-30T05:09:01.056Z,2.65
2022-11-30T05:11:29.855Z,2.80
2022-11-30T05:14:01.403Z,2.83
2022-11-30T05:16:47.447Z,2.64
2022-11-30T05:19:18.075Z,2.62
2022-11-30T05:22:21.664Z,2.86
2022-11-30T05:24:50.217Z,2.69
2022-11-30T05:27:22.232Z,2.67
2022-11-30T05:29:50.125Z,2.73
2022-11-30T05:32:29.126Z,2.85
2022-11-30T05:34:58.952Z,2.66
2022-11-30T05:37:34.621Z,2.80
2022-11-30T05:40:07.766Z,2.71
2022-11-30T05:42:34.250Z,2.84
2022-11-30T05:45:00.664Z,2.35
2022-11-30T05:47:31.300Z,2.69
2022-11-30T05:49:57.711Z,2.82
2022-11-30T05:52:24.236Z,2.84
2022-11-30T05:54:50.655Z,2.68
2022-11-30T05:57:17.089Z,2.89
2022-11-30T06:00:00.959Z,2.96
2022-11-30T06:02:34.126Z,2.71
2022-11-30T06:05:08.145Z,2.75
2022-11-30T06:07:35.740Z,2.59
2022-11-30T06:10:02.262Z,2.72
2022-11-30T06:12:28.682Z,2.58
2022-11-30T06:14:55.111Z,2.74
2022-11-30T06:17:21.539Z,2.80
2022-11-30T06:19:48.052Z,2.89
2022-11-30T06:22:14.566Z,2.83
2022-11-30T06:24:41.023Z,2.46
2022-11-30T06:27:07.468Z,2.58
2022-11-30T06:29:33.926Z,3.04
2022-11-30T06:32:00.455Z,2.72
2022-11-30T06:34:26.895Z,2.56
2022-11-30T06:36:53.379Z,2.58
2022-11-30T06:39:36.660Z,2.70
2022-11-30T06:42:06.355Z,2.82
2022-11-30T06:44:32.947Z,2.43
2022-11-30T06:46:59.390Z,1.58
2022-11-30T06:49:25.870Z,2.66
2022-11-30T06:52:00.187Z,2.71
2022-11-30T06:54:26.587Z,2.54
2022-11-30T06:56:52.996Z,2.45
2022-11-30T06:59:22.584Z,2.46
2022-11-30T07:01:48.998Z,2.49
2022-11-30T07:04:15.502Z,2.60
2022-11-30T07:06:42.027Z,2.64
2022-11-30T07:09:10.334Z,2.40
2022-11-30T07:11:36.722Z,2.10
2022-11-30T07:14:03.161Z,2.29
2022-11-30T07:16:29.636Z,2.37
2022-11-30T07:18:56.086Z,2.48
2022-11-30T07:21:27.496Z,2.35
2022-11-30T07:24:12.455Z,2.45
2022-11-30T07:26:38.885Z,2.51
2022-11-30T07:29:05.438Z,2.48
2022-11-30T07:31:35.943Z,2.37
2022-11-30T07:34:07.976Z,2.07
2022-11-30T07:36:35.494Z,2.15
2022-11-30T07:39:02.720Z,1.99
2022-11-30T07:41:29.244Z,2.11
2022-11-30T07:43:55.674Z,2.05
2022-11-30T07:46:22.169Z,2.24
2022-11-30T07:48:50.788Z,2.25
2022-11-30T07:51:19.858Z,2.35
2022-11-30T07:53:48.568Z,2.13
2022-11-30T07:56:19.029Z,1.88
2022-11-30T07:58:46.295Z,1.77
2022-11-30T08:01:15.563Z,1.79
2022-11-30T08:03:42.505Z,1.76
2022-11-30T08:06:14.238Z,1.71
2022-11-30T08:08:43.435Z,1.78
2022-11-30T08:11:12.375Z,1.77
2022-11-30T08:13:39.064Z,1.68
2022-11-30T08:16:08.387Z,1.97
2022-11-30T08:18:35.085Z,1.54
2022-11-30T08:21:12.741Z,1.67
2022-11-30T08:23:42.032Z,1.95
2022-11-30T08:26:12.750Z,1.69
2022-11-30T08:28:40.187Z,1.42
2022-11-30T08:31:22.584Z,1.66
2022-11-30T08:33:49.930Z,1.78
2022-11-30T08:36:26.321Z,1.76
2022-11-30T08:38:52.840Z,1.86
2022-11-30T08:41:21.472Z,1.83
2022-11-30T08:43:50.566Z,1.65
2022-11-30T08:49:21.137Z,1.68
2022-11-30T08:57:32.029Z,1.71
2022-11-30T08:59:58.453Z,1.61
2022-11-30T09:02:24.947Z,2.08
2022-11-30T09:04:53.608Z,1.81
2022-11-30T09:07:20.191Z,2.13
2022-11-30T09:09:46.808Z,1.89
2022-11-30T09:12:14.514Z,2.05
2022-11-30T09:14:43.003Z,1.68
2022-11-30T09:17:09.523Z,1.78
2022-11-30T09:19:36.015Z,1.75
2022-11-30T09:22:02.461Z,1.76
2022-11-30T09:24:28.890Z,1.94
2022-11-30T09:26:57.214Z,1.71
2022-11-30T09:29:24.209Z,1.50
2022-11-30T09:31:50.648Z,1.75
2022-11-30T09:34:17.134Z,1.69
2022-11-30T09:36:43.677Z,1.91
2022-11-30T09:39:12.737Z,1.73
2022-11-30T09:42:03.638Z,2.09
2022-11-30T09:44:55.897Z,2.08
2022-11-30T09:47:52.810Z,2.16
2022-11-30T09:50:22.935Z,1.95
2022-11-30T09:52:56.530Z,1.88
2022-11-30T09:55:43.737Z,2.11
2022-11-30T09:58:27.639Z,1.91
2022-11-30T10:00:54.075Z,1.88
2022-11-30T10:03:23.403Z,2.11
2022-11-30T10:06:11.095Z,2.08
2022-11-30T10:08:50.363Z,2.14
2022-11-30T10:11:32.578Z,2.14
2022-11-30T10:14:20.580Z,1.87
2022-11-30T10:17:05.382Z,2.00
2022-11-30T10:19:40.951Z,1.88
2022-11-30T10:22:28.764Z,1.66
2022-11-30T10:25:19.463Z,1.69
2022-11-30T10:27:54.347Z,1.62
2022-11-30T10:30:23.949Z,1.57
2022-11-30T10:32:55.867Z,1.58
2022-11-30T10:35:41.931Z,1.48
2022-11-30T10:38:23.549Z,1.35
2022-11-30T10:41:01.484Z,1.78
2022-11-30T10:44:25.781Z,1.86
2022-11-30T10:47:00.544Z,1.34
2022-11-30T10:49:29.509Z,1.40
2022-11-30T10:52:03.150Z,1.49
2022-11-30T10:54:31.685Z,1.72
2022-11-30T10:57:01.058Z,1.92
2022-11-30T10:59:38.710Z,2.06
2022-11-30T11:02:42.254Z,2.20
2022-11-30T11:05:30.104Z,2.08
2022-11-30T11:08:17.025Z,2.35
2022-11-30T11:10:47.256Z,2.37
2022-11-30T11:13:38.093Z,2.38
2022-11-30T11:16:07.127Z,2.33
2022-11-30T11:18:35.140Z,2.16
2022-11-30T11:21:22.076Z,2.29
2022-11-30T11:23:52.696Z,2.31
2022-11-30T11:26:30.350Z,2.29
2022-11-30T11:29:01.134Z,2.25
2022-11-30T11:31:49.071Z,2.43
2022-11-30T11:34:24.708Z,2.25
2022-11-30T11:37:20.186Z,2.01
2022-11-30T11:40:17.380Z,2.09
2022-11-30T11:42:50.975Z,1.83
2022-11-30T11:45:30.696Z,1.98
2022-11-30T11:48:28.712Z,2.18
2022-11-30T11:51:10.318Z,2.28
2022-11-30T11:53:46.288Z,2.31
2022-11-30T11:56:32.035Z,2.13
2022-11-30T11:59:03.958Z,2.14
2022-11-30T12:01:40.898Z,2.06
2022-11-30T12:04:35.675Z,2.44
2022-11-30T12:07:17.953Z,2.31
2022-11-30T12:09:57.122Z,2.38
2022-11-30T12:12:23.684Z,2.26
2022-11-30T12:14:50.211Z,2.46
2022-11-30T12:17:29.523Z,2.45
2022-11-30T12:20:14.346Z,2.63
2022-11-30T12:22:58.477Z,2.02
2022-11-30T12:25:27.777Z,2.37
2022-11-30T12:28:07.386Z,2.49
2022-11-30T12:30:59.261Z,2.56
2022-11-30T12:34:03.308Z,2.46
2022-11-30T12:36:42.010Z,2.45
2022-11-30T12:39:15.037Z,2.26
2022-11-30T12:41:51.875Z,2.48
2022-11-30T12:44:42.496Z,2.09
2022-11-30T12:47:46.866Z,2.47
2022-11-30T12:50:24.413Z,2.25
2022-11-30T12:53:15.995Z,2.38
2022-11-30T12:55:50.372Z,2.33
2022-11-30T12:59:12.359Z,2.34
2022-11-30T13:02:17.943Z,2.38
2022-11-30T13:04:53.369Z,2.30
2022-11-30T13:07:32.657Z,2.17
2022-11-30T13:10:38.755Z,2.35
2022-11-30T13:13:06.282Z,2.38
2022-11-30T13:15:35.120Z,2.51
2022-11-30T13:18:03.288Z,2.01
2022-11-30T13:20:42.463Z,1.94
2022-11-30T13:23:31.747Z,2.23
2022-11-30T13:26:10.053Z,2.06
2022-11-30T13:28:42.797Z,2.26
2022-11-30T13:31:27.054Z,2.17
2022-11-30T13:34:02.147Z,2.11
2022-11-30T13:36:43.521Z,2.37
2022-11-30T13:39:49.649Z,2.28
2022-11-30T13:42:31.433Z,2.09
2022-11-30T13:45:24.150Z,2.30
2022-11-30T13:47:53.109Z,2.34
2022-11-30T13:50:31.582Z,2.30
2022-11-30T13:53:22.095Z,2.33
2022-11-30T13:55:48.443Z,2.30
2022-11-30T13:58:17.148Z,2.30
2022-11-30T14:01:31.614Z,2.27
2022-11-30T14:04:30.826Z,2.32
2022-11-30T14:07:01.730Z,2.22
2022-11-30T14:09:47.845Z,2.30
2022-11-30T14:12:45.089Z,2.29
2022-11-30T14:15:31.826Z,2.09
2022-11-30T14:17:58.716Z,2.06
2022-11-30T14:20:37.809Z,2.14
2022-11-30T14:23:18.118Z,2.06
2022-11-30T14:26:07.660Z,2.08
2022-11-30T14:29:08.157Z,2.03
2022-11-30T14:31:50.752Z,1.79
2022-11-30T14:34:35.223Z,2.11
2022-11-30T14:37:25.724Z,2.22
2022-11-30T14:40:01.541Z,2.21
2022-11-30T14:42:32.179Z,2.15
2022-11-30T14:45:02.758Z,2.28
2022-11-30T14:47:35.242Z,2.14
2022-11-30T14:50:09.697Z,1.92
2022-11-30T14:52:53.863Z,1.55
2022-11-30T14:55:44.348Z,1.72
2022-11-30T14:58:48.082Z,1.95
2022-11-30T15:01:26.218Z,1.67
2022-11-30T15:04:10.601Z,1.81
2022-11-30T15:06:40.227Z,1.73
2022-11-30T15:09:22.930Z,1.72
2022-11-30T15:11:53.938Z,1.67
2022-11-30T15:14:21.884Z,1.64
2022-11-30T15:16:58.173Z,2.01
2022-11-30T15:19:31.974Z,1.75
2022-11-30T15:22:05.097Z,1.51
2022-11-30T15:24:38.169Z,1.64
2022-11-30T15:27:14.509Z,1.42
2022-11-30T15:30:03.038Z,1.55
2022-11-30T15:32:46.940Z,1.59
2022-11-30T15:35:23.971Z,1.64
2022-11-30T15:37:51.696Z,1.77
2022-11-30T15:40:36.750Z,1.65
2022-11-30T15:43:04.965Z,1.66
2022-11-30T15:45:36.260Z,1.60
2022-11-30T15:48:30.249Z,1.78
2022-11-30T15:51:01.434Z,1.66
2022-11-30T15:53:47.274Z,1.62
2022-11-30T15:56:28.397Z,1.68
2022-11-30T15:59:34.058Z,1.62
2022-11-30T16:02:14.135Z,1.83
2022-11-30T16:05:23.673Z,1.69
2022-11-30T16:08:03.384Z,1.80
2022-11-30T16:10:36.220Z,1.69
2022-11-30T16:13:05.232Z,1.65
2022-11-30T16:15:36.385Z,1.78
2022-11-30T16:18:24.755Z,1.69
2022-11-30T16:20:57.425Z,1.27
2022-11-30T16:23:23.927Z,1.51
2022-11-30T16:25:50.843Z,1.58
2022-11-30T16:28:19.145Z,1.63
2022-11-30T16:30:46.180Z,1.39
2022-11-30T16:33:19.133Z,1.51
2022-11-30T16:35:55.691Z,1.66
2022-11-30T16:38:23.599Z,1.56
2022-11-30T16:40:50.131Z,1.60
2022-11-30T16:43:20.723Z,1.70
2022-11-30T16:45:47.344Z,1.39
2022-11-30T16:48:16.634Z,1.54
2022-11-30T16:50:44.620Z,1.64
2022-11-30T16:53:28.684Z,1.49
2022-11-30T16:55:55.429Z,1.50
2022-11-30T16:58:22.213Z,1.61
2022-11-30T17:00:48.826Z,1.44
2022-11-30T17:03:23.706Z,0.91
2022-11-30T17:06:00.436Z,1.35
2022-11-30T17:08:28.971Z,1.26
2022-11-30T17:10:55.431Z,1.40
2022-11-30T17:13:24.011Z,1.36
2022-11-30T17:15:52.543Z,1.44
2022-11-30T17:18:29.994Z,1.49
2022-11-30T17:20:58.606Z,1.41
2022-11-30T17:23:26.284Z,1.03
2022-11-30T17:25:56.124Z,1.20
2022-11-30T17:28:22.528Z,1.16
2022-11-30T17:31:04.833Z,1.36
2022-11-30T17:33:34.002Z,1.44
2022-11-30T17:36:05.279Z,1.52
2022-11-30T17:38:45.386Z,1.57
2022-11-30T17:41:19.604Z,1.67
2022-11-30T17:43:46.917Z,1.47
2022-11-30T17:46:15.865Z,1.59
2022-11-30T17:48:43.696Z,1.38
2022-11-30T17:51:11.175Z,1.52
2022-11-30T17:53:39.145Z,1.54
2022-11-30T17:56:08.470Z,1.59
2022-11-30T17:58:43.477Z,1.53
2022-11-30T18:01:19.826Z,1.36
2022-11-30T18:03:47.003Z,1.52
2022-11-30T18:06:14.469Z,1.38
2022-11-30T18:08:40.956Z,1.62
2022-11-30T18:11:15.647Z,1.54
2022-11-30T18:13:44.233Z,1.59
2022-11-30T18:16:16.305Z,1.58
2022-11-30T18:18:47.784Z,1.21
2022-11-30T18:21:18.518Z,1.37
2022-11-30T18:23:45.614Z,1.40
2022-11-30T18:26:15.841Z,1.27
2022-11-30T18:28:42.876Z,1.51
2022-11-30T18:31:10.498Z,1.62
2022-11-30T18:33:38.253Z,1.40
2022-11-30T18:36:08.792Z,1.48
2022-11-30T18:38:38.680Z,1.54
2022-11-30T18:41:25.873Z,1.58
2022-11-30T18:43:55.920Z,1.56
2022-11-30T18:46:22.583Z,1.55
2022-11-30T18:48:50.586Z,1.73
2022-11-30T18:51:24.651Z,1.44
2022-11-30T18:54:05.679Z,1.67
2022-11-30T18:56:34.895Z,1.67
2022-11-30T18:59:07.145Z,1.80
2022-11-30T19:01:34.968Z,1.90
2022-11-30T19:04:05.427Z,1.49
2022-11-30T19:06:40.008Z,1.76
2022-11-30T19:09:19.978Z,1.62
2022-11-30T19:11:46.530Z,1.33
2022-11-30T19:14:20.106Z,1.39
2022-11-30T19:16:47.903Z,1.45
2022-11-30T19:19:15.098Z,1.43
2022-11-30T19:21:47.725Z,1.54
2022-11-30T19:24:16.311Z,1.34
2022-11-30T19:26:42.832Z,1.25
2022-11-30T19:29:12.198Z,1.31
2022-11-30T19:31:39.673Z,1.23
2022-11-30T19:34:12.595Z,1.31
2022-11-30T19:36:49.149Z,0.96
2022-11-30T19:39:20.755Z,0.91
2022-11-30T19:41:49.294Z,1.11
2022-11-30T19:44:22.769Z,1.18
2022-11-30T19:46:49.271Z,1.16
2022-11-30T19:49:15.696Z,1.32
2022-11-30T19:52:00.548Z,1.22
2022-11-30T19:54:27.179Z,1.01
2022-11-30T19:56:59.060Z,1.13
2022-11-30T19:59:29.627Z,1.20
2022-11-30T20:02:01.374Z,1.01
2022-11-30T20:04:31.044Z,1.38
2022-11-30T20:07:00.515Z,1.29
2022-11-30T20:09:37.016Z,1.32
2022-11-30T20:12:03.577Z,1.18
2022-11-30T20:14:30.043Z,1.22
2022-11-30T20:16:56.479Z,1.35
2022-11-30T20:19:30.016Z,1.30
2022-11-30T20:22:29.448Z,1.52
2022-11-30T20:24:56.269Z,1.62
2022-11-30T20:27:24.864Z,1.24
2022-11-30T20:29:51.939Z,1.35
2022-11-30T20:32:19.329Z,1.35
2022-11-30T20:34:46.292Z,1.41
2022-11-30T20:37:13.746Z,1.19
2022-11-30T20:39:56.831Z,1.13
2022-11-30T20:42:23.319Z,1.20
2022-11-30T20:44:55.727Z,0.78
2022-11-30T20:47:22.201Z,0.81
2022-11-30T20:49:51.779Z,1.27
2022-11-30T20:52:18.180Z,1.27
2022-11-30T20:54:48.952Z,1.26
2022-11-30T20:57:15.618Z,1.27
2022-11-30T21:00:02.187Z,1.43
2022-11-30T21:02:28.700Z,1.33
2022-11-30T21:04:55.119Z,1.27
2022-11-30T21:07:21.627Z,1.32
2022-11-30T21:09:49.179Z,1.30
2022-11-30T21:12:15.613Z,1.35
2022-11-30T21:14:49.581Z,1.45
2022-11-30T21:17:16.264Z,1.38
2022-11-30T21:19:42.684Z,1.24
2022-11-30T21:22:19.270Z,1.23
2022-11-30T21:24:46.017Z,1.42
2022-11-30T21:27:12.689Z,1.32
2022-11-30T21:29:39.171Z,1.35
2022-11-30T21:32:05.676Z,1.21
2022-11-30T21:34:33.764Z,1.21
2022-11-30T21:37:00.285Z,1.31
2022-11-30T21:39:26.869Z,1.52
2022-11-30T21:41:53.280Z,1.22
2022-11-30T21:44:20.090Z,1.22
2022-11-30T21:46:47.248Z,1.30
2022-11-30T21:49:15.274Z,1.54
2022-11-30T21:51:46.899Z,1.32
2022-11-30T21:54:13.634Z,1.35
2022-11-30T21:56:41.077Z,1.69
2022-11-30T21:59:08.964Z,1.58
2022-11-30T22:01:41.597Z,1.68
2022-11-30T22:04:30.605Z,1.51
2022-11-30T22:06:57.047Z,1.35
2022-11-30T22:09:25.544Z,1.29
2022-11-30T22:11:51.989Z,1.18
2022-11-30T22:14:24.259Z,1.31
2022-11-30T22:16:52.687Z,1.27
2022-11-30T22:19:19.345Z,1.22
2022-11-30T22:21:52.643Z,1.42
2022-11-30T22:24:22.316Z,1.25
2022-11-30T22:26:55.848Z,1.21
2022-11-30T22:29:24.547Z,1.12
2022-11-30T22:31:53.552Z,1.30
2022-11-30T22:34:20.943Z,1.19
2022-11-30T22:36:48.208Z,1.05
2022-11-30T22:39:17.184Z,0.97
2022-11-30T22:41:45.268Z,1.19
2022-11-30T22:44:16.624Z,1.09
2022-11-30T22:46:46.433Z,0.66
2022-11-30T22:49:20.219Z,0.85
2022-11-30T22:52:12.111Z,0.95
2022-11-30T22:54:38.579Z,0.91
2022-11-30T22:57:05.040Z,0.66
2022-11-30T22:59:31.520Z,0.75
2022-11-30T23:01:57.955Z,0.81
2022-11-30T23:04:24.423Z,0.78
2022-11-30T23:06:51.452Z,0.97
2022-11-30T23:09:21.285Z,0.85
2022-11-30T23:11:48.658Z,0.94
2022-11-30T23:14:16.250Z,0.82
2022-11-30T23:16:43.343Z,1.05
2022-11-30T23:19:11.651Z,0.84
2022-11-30T23:21:42.126Z,0.52
2022-11-30T23:24:13.289Z,0.68
2022-11-30T23:26:40.887Z,1.05
2022-11-30T23:29:10.417Z,0.76
2022-11-30T23:31:38.912Z,0.92
2022-11-30T23:34:39.687Z,0.94
2022-11-30T23:37:06.154Z,0.93
2022-11-30T23:39:48.311Z,1.14
2022-11-30T23:42:14.912Z,1.12
2022-11-30T23:44:41.312Z,0.86
2022-11-30T23:47:07.913Z,1.05
2022-11-30T23:49:34.379Z,1.07
2022-11-30T23:52:00.897Z,1.17
2022-11-30T23:54:29.383Z,0.99
2022-11-30T23:56:55.821Z,1.08
2022-11-30T23:59:22.261Z,1.14
